Time;durP1;ratioP1;P1;durP2;ratioP2;P2;SDS_P1;SDS_P2;PMS_P1;PMS_P2;Temp;Humidity;BMP_temperature;BMP_pressure;BME280_temperature;BME280_humidity;BME280_pressure;Samples;Min_cycle;Max_cycle;Signal;HPM_P1;HPM_P2
2022/03/03 00:02:14;;;;;;;73.85;31.93;;;;;;;-4.31;64.55;101193.78;1730202;83;21009;-69
2022/03/03 00:04:40;;;;;;;74.10;33.88;;;;;;;-4.33;64.64;101194.30;1712321;82;21040;-69
2022/03/03 00:07:06;;;;;;;96.28;43.42;;;;;;;-4.31;64.66;101190.73;1730434;83;21028;-69
2022/03/03 00:09:32;;;;;;;88.82;42.20;;;;;;;-4.29;64.69;101191.99;1716930;83;26721;-69
2022/03/03 00:11:58;;;;;;;104.83;49.03;;;;;;;-4.31;64.74;101190.73;1712287;83;21063;-69
2022/03/03 00:14:24;;;;;;;95.32;42.55;;;;;;;-4.30;64.80;101192.44;1730217;83;21009;-69
2022/03/03 00:16:50;;;;;;;103.15;45.63;;;;;;;-4.23;64.83;101196.96;1712390;83;21545;-69
2022/03/03 00:19:16;;;;;;;107.67;49.50;;;;;;;-4.25;64.87;101197.45;1730294;83;22024;-69
2022/03/03 00:21:42;;;;;;;129.45;54.70;;;;;;;-4.31;64.93;101197.69;1714659;82;21076;-69
2022/03/03 00:24:08;;;;;;;125.90;52.73;;;;;;;-4.37;65.00;101194.02;1712186;83;21084;-69
2022/03/03 00:26:34;;;;;;;131.57;47.90;;;;;;;-4.41;65.04;101191.12;1712348;83;21005;-70
2022/03/03 00:29:00;;;;;;;272.10;80.53;;;;;;;-4.48;65.08;101187.05;1712599;83;21029;-69
2022/03/03 00:31:26;;;;;;;169.13;60.80;;;;;;;-4.51;65.13;101187.16;1712236;83;21572;-69
2022/03/03 00:33:52;;;;;;;164.03;57.45;;;;;;;-4.49;65.13;101182.73;1712503;83;21524;-69
2022/03/03 00:36:18;;;;;;;165.20;57.43;;;;;;;-4.47;65.17;101179.64;1712262;83;25771;-69
2022/03/03 00:38:44;;;;;;;221.68;74.05;;;;;;;-4.46;65.25;101179.57;1730051;83;21052;-69
2022/03/03 00:41:10;;;;;;;185.03;61.23;;;;;;;-4.46;65.29;101175.67;1712444;83;21029;-69
2022/03/03 00:43:37;;;;;;;175.70;60.75;;;;;;;-4.39;65.35;101174.98;1730262;83;21152;-69
2022/03/03 00:46:03;;;;;;;183.80;60.80;;;;;;;-4.44;65.37;101170.42;1717168;83;21049;-69
2022/03/03 00:48:29;;;;;;;210.43;65.35;;;;;;;-4.51;65.44;101164.59;1730240;82;21016;-69
2022/03/03 00:50:55;;;;;;;142.07;50.35;;;;;;;-4.51;65.50;101159.39;1717082;83;21107;-69
2022/03/03 00:53:23;;;;;;;154.68;52.10;;;;;;;-4.47;65.58;101147.11;1730273;81;21099;-69
2022/03/03 00:55:49;;;;;;;130.95;43.75;;;;;;;-4.42;65.61;101139.97;1717277;83;21242;-69
2022/03/03 00:58:15;;;;;;;119.35;42.30;;;;;;;-4.44;65.67;101140.04;1730426;82;21026;-69
2022/03/03 01:00:41;;;;;;;93.22;33.42;;;;;;;-4.42;65.73;101143.87;1717048;83;21028;-69
2022/03/03 01:03:07;;;;;;;77.80;33.10;;;;;;;-4.49;65.78;101145.00;1730310;82;28221;-69
2022/03/03 01:05:33;;;;;;;82.92;32.05;;;;;;;-4.51;65.79;101145.52;1717114;83;21071;-69
2022/03/03 01:07:59;;;;;;;87.50;33.00;;;;;;;-4.57;65.83;101134.42;1712240;83;21181;-70
2022/03/03 01:10:25;;;;;;;69.40;29.77;;;;;;;-4.52;65.87;101134.71;1729829;83;26904;-69
2022/03/03 01:12:51;;;;;;;71.65;29.85;;;;;;;-4.49;65.89;101134.59;1717542;82;25854;-69
2022/03/03 01:15:17;;;;;;;74.37;32.10;;;;;;;-4.51;65.93;101124.70;1692963;83;21492;-69
2022/03/03 01:17:43;;;;;;;75.03;31.15;;;;;;;-4.58;65.96;101121.48;1700292;84;21566;-70
2022/03/03 01:20:10;;;;;;;116.20;47.08;;;;;;;-4.52;66.03;101123.00;1699716;84;21762;-69
2022/03/03 01:22:36;;;;;;;141.07;55.65;;;;;;;-4.45;66.05;101128.37;1695166;82;20992;-69
2022/03/03 01:25:05;;;;;;;116.15;44.88;;;;;;;-4.41;66.09;101122.15;1692885;84;21546;-69
2022/03/03 01:27:32;;;;;;;130.70;50.23;;;;;;;-4.38;66.12;101124.19;1693351;84;21097;-69
2022/03/03 01:29:59;;;;;;;139.05;53.65;;;;;;;-4.38;66.11;101118.98;1693069;84;21046;-70
2022/03/03 01:32:25;;;;;;;140.12;50.92;;;;;;;-4.36;66.14;101119.75;1692848;84;21051;-69
2022/03/03 01:34:51;;;;;;;139.85;49.30;;;;;;;-4.28;66.17;101125.53;1692966;84;21011;-70
2022/03/03 01:37:17;;;;;;;144.17;52.43;;;;;;;-4.26;66.18;101120.28;1692784;84;21051;-69
2022/03/03 01:39:43;;;;;;;120.15;44.33;;;;;;;-4.19;66.21;101120.44;1692877;84;21003;-69
2022/03/03 01:42:09;;;;;;;121.65;47.53;;;;;;;-4.15;66.22;101110.30;1693093;84;21034;-70
2022/03/03 01:44:35;;;;;;;112.55;43.20;;;;;;;-4.10;66.25;101118.77;1692869;84;21156;-70
2022/03/03 01:47:01;;;;;;;146.28;56.75;;;;;;;-4.10;66.28;101113.55;1675299;84;26801;-69
2022/03/03 01:49:27;;;;;;;139.22;51.05;;;;;;;-4.10;66.34;101114.41;1693024;84;26258;-70
2022/03/03 01:51:53;;;;;;;149.05;56.45;;;;;;;-4.02;66.35;101114.11;1692993;84;21055;-69
2022/03/03 01:54:19;;;;;;;138.03;49.30;;;;;;;-3.98;66.40;101115.69;1692993;84;21086;-69
2022/03/03 01:56:46;;;;;;;144.55;51.15;;;;;;;-3.97;66.43;101106.95;1692976;84;21143;-69
2022/03/03 01:59:12;;;;;;;120.22;44.55;;;;;;;-3.97;66.45;101110.85;1692825;84;21074;-70
2022/03/03 02:01:39;;;;;;;128.57;50.30;;;;;;;-3.94;66.50;101110.73;1692975;84;20995;-70
2022/03/03 02:04:07;;;;;;;135.10;49.15;;;;;;;-3.88;66.53;101106.59;1671256;84;21499;-69
2022/03/03 02:06:34;;;;;;;128.35;49.13;;;;;;;-3.83;66.54;101104.64;1692987;84;21026;-69
2022/03/03 02:09:00;;;;;;;158.00;56.37;;;;;;;-3.81;66.57;101105.89;1692586;84;21160;-69
2022/03/03 02:11:26;;;;;;;121.45;44.18;;;;;;;-3.75;66.60;101102.58;1692920;84;21034;-70
2022/03/03 02:13:51;;;;;;;129.30;50.08;;;;;;;-3.75;66.63;101099.98;1692858;84;26292;-70
2022/03/03 02:16:18;;;;;;;123.90;45.92;;;;;;;-3.69;66.66;101095.81;1693060;84;28186;-70
2022/03/03 02:18:44;;;;;;;149.20;54.38;;;;;;;-3.63;66.70;101091.67;1692901;84;21038;-70
2022/03/03 02:21:12;;;;;;;144.35;50.88;;;;;;;-3.57;66.78;101084.89;1692927;84;21191;-69
2022/03/03 02:23:38;;;;;;;220.27;73.28;;;;;;;-3.46;66.79;101083.14;1699478;82;21502;-70
2022/03/03 02:26:04;;;;;;;223.70;71.28;;;;;;;-3.44;66.79;101081.75;1699867;84;21641;-70
2022/03/03 02:28:30;;;;;;;217.90;71.57;;;;;;;-3.47;66.84;101083.19;1700189;84;21990;-70
2022/03/03 02:30:56;;;;;;;152.80;53.50;;;;;;;-3.43;66.89;101083.45;1699961;84;20998;-70
2022/03/03 02:33:22;;;;;;;225.72;77.50;;;;;;;-3.38;66.92;101085.42;1700134;84;21171;-70
2022/03/03 02:35:48;;;;;;;199.07;69.45;;;;;;;-3.29;66.97;101081.11;1699776;84;21534;-70
2022/03/03 02:38:14;;;;;;;151.82;56.05;;;;;;;-3.24;67.01;101072.64;1700248;84;21050;-70
2022/03/03 02:40:40;;;;;;;163.62;61.13;;;;;;;-3.24;67.02;101064.37;1699978;84;21034;-70
2022/03/03 02:43:06;;;;;;;164.62;58.15;;;;;;;-3.16;67.06;101065.31;1700080;84;21632;-70
2022/03/03 02:45:32;;;;;;;172.65;62.17;;;;;;;-3.05;67.09;101065.70;1699974;84;21907;-70
2022/03/03 02:47:58;;;;;;;169.20;62.35;;;;;;;-2.97;67.11;101065.36;1700011;84;21605;-69
2022/03/03 02:50:25;;;;;;;139.65;56.53;;;;;;;-3.02;67.14;101060.34;1700142;84;21049;-69
2022/03/03 02:52:51;;;;;;;126.58;49.77;;;;;;;-3.05;67.17;101055.27;1700182;84;21010;-69
2022/03/03 02:55:17;;;;;;;125.50;49.75;;;;;;;-3.02;67.24;101053.81;1700241;84;21842;-70
2022/03/03 02:57:53;;;;;;;139.65;57.62;;;;;;;-2.96;67.29;101058.78;1699971;84;21916;-70
2022/03/03 03:00:27;;;;;;;135.52;55.00;;;;;;;-2.89;67.34;101058.90;1700068;84;21511;-69
2022/03/03 03:02:53;;;;;;;148.68;57.65;;;;;;;-2.85;67.38;101060.42;1700158;84;21046;-70
2022/03/03 03:05:20;;;;;;;134.20;50.10;;;;;;;-2.80;67.43;101058.47;1700273;84;21069;-70
2022/03/03 03:07:46;;;;;;;138.22;49.55;;;;;;;-2.71;67.46;101050.21;1700210;84;21042;-70
2022/03/03 03:10:12;;;;;;;112.37;45.28;;;;;;;-2.71;67.49;101041.08;1700132;84;21007;-70
2022/03/03 03:12:38;;;;;;;120.82;47.98;;;;;;;-2.74;67.51;101037.30;1700125;84;21050;-70
2022/03/03 03:15:05;;;;;;;116.20;46.20;;;;;;;-2.71;67.56;101035.86;1699741;84;21058;-70
2022/03/03 03:17:31;;;;;;;115.72;47.60;;;;;;;-2.67;67.63;101033.50;1700002;84;21084;-70
2022/03/03 03:19:57;;;;;;;119.67;48.63;;;;;;;-2.59;67.65;101024.01;1700186;84;21016;-70
2022/03/03 03:22:23;;;;;;;94.87;40.92;;;;;;;-2.53;67.67;101018.04;1697887;83;21112;-70
2022/03/03 03:24:49;;;;;;;91.97;43.20;;;;;;;-2.52;67.69;101016.28;1692925;84;26823;-70
2022/03/03 03:27:15;;;;;;;92.67;37.50;;;;;;;-2.53;67.76;101015.43;1692789;84;21051;-70
2022/03/03 03:29:41;;;;;;;94.42;40.20;;;;;;;-2.53;67.80;101021.11;1692807;84;21098;-70
2022/03/03 03:32:07;;;;;;;93.90;39.13;;;;;;;-2.50;67.83;101017.07;1692837;84;20979;-69
2022/03/03 03:34:33;;;;;;;88.25;39.33;;;;;;;-2.52;67.85;101010.61;1692799;84;21104;-69
2022/03/03 03:36:59;;;;;;;82.12;35.90;;;;;;;-2.44;67.93;101014.16;1692644;84;26907;-70
2022/03/03 03:39:25;;;;;;;83.35;37.78;;;;;;;-2.38;67.95;101008.64;1693045;84;21006;-70
2022/03/03 03:41:51;;;;;;;81.40;37.88;;;;;;;-2.31;67.98;101014.41;1692883;84;21520;-70
2022/03/03 03:44:17;;;;;;;87.25;37.55;;;;;;;-2.28;68.00;101009.89;1692887;84;21487;-70
2022/03/03 03:46:44;;;;;;;92.60;40.63;;;;;;;-2.26;68.03;100999.37;1692691;84;21937;-70
2022/03/03 03:49:10;;;;;;;79.32;36.98;;;;;;;-2.28;68.05;100995.98;1692805;84;20998;-70
2022/03/03 03:51:36;;;;;;;78.97;38.23;;;;;;;-2.24;68.07;100996.22;1692832;84;20999;-70
2022/03/03 03:54:02;;;;;;;88.03;38.13;;;;;;;-2.19;68.06;100998.16;1692921;84;21086;-70
2022/03/03 03:56:28;;;;;;;81.00;37.98;;;;;;;-2.12;68.07;100996.95;1693030;84;21007;-70
2022/03/03 03:58:54;;;;;;;82.30;40.15;;;;;;;-2.06;68.07;100996.64;1692774;84;21161;-70
2022/03/03 04:01:20;;;;;;;76.05;35.00;;;;;;;-1.99;68.07;100994.56;1692939;84;21015;-70
2022/03/03 04:03:47;;;;;;;104.47;45.88;;;;;;;-1.91;68.06;100996.34;1692887;84;26153;-70
2022/03/03 04:06:13;;;;;;;87.37;40.10;;;;;;;-1.87;68.04;100997.43;1692516;84;21483;-70
2022/03/03 04:08:39;;;;;;;108.07;46.42;;;;;;;-1.85;68.01;100994.72;1692973;84;21555;-70
2022/03/03 04:11:06;;;;;;;106.05;45.70;;;;;;;-1.86;68.01;100993.88;1692745;84;21522;-70
2022/03/03 04:13:32;;;;;;;103.85;48.63;;;;;;;-1.87;68.00;100993.51;1692603;84;21050;-70
2022/03/03 04:15:58;;;;;;;99.37;44.33;;;;;;;-1.87;67.97;100987.43;1692865;84;20999;-70
2022/03/03 04:18:24;;;;;;;97.72;43.98;;;;;;;-1.88;67.94;100986.58;1692818;84;21020;-70
2022/03/03 04:20:50;;;;;;;103.97;45.17;;;;;;;-1.85;67.93;100992.95;1692803;84;21102;-70
2022/03/03 04:23:17;;;;;;;92.37;43.45;;;;;;;-1.79;67.92;100999.17;1708503;83;21198;-70
2022/03/03 04:25:43;;;;;;;100.27;45.12;;;;;;;-1.78;67.89;100993.49;1688137;84;21016;-70
2022/03/03 04:28:09;;;;;;;96.02;42.08;;;;;;;-1.81;67.88;100984.50;1702497;84;21027;-70
2022/03/03 04:30:35;;;;;;;101.33;46.13;;;;;;;-1.83;67.85;100990.28;1702619;84;21028;-70
2022/03/03 04:33:01;;;;;;;103.47;45.40;;;;;;;-1.83;67.83;100979.34;1702614;84;21063;-70
2022/03/03 04:35:28;;;;;;;101.53;43.28;;;;;;;-1.85;67.82;100978.58;1702697;84;21093;-70
2022/03/03 04:37:55;;;;;;;94.07;41.30;;;;;;;-1.86;67.77;100978.19;1702649;84;21015;-70
2022/03/03 04:40:21;;;;;;;89.22;41.85;;;;;;;-1.91;67.76;100969.75;1702381;84;21905;-70
2022/03/03 04:42:47;;;;;;;91.47;41.90;;;;;;;-1.89;67.76;100967.05;1702576;84;21486;-70
2022/03/03 04:45:13;;;;;;;95.10;41.73;;;;;;;-1.91;67.75;100969.75;1702700;84;21067;-70
2022/03/03 04:47:40;;;;;;;97.50;43.45;;;;;;;-1.96;67.73;100958.67;1702836;83;21152;-70
2022/03/03 04:50:06;;;;;;;94.95;40.52;;;;;;;-1.99;67.72;100952.30;1702982;84;21055;-70
2022/03/03 04:52:33;;;;;;;90.70;42.25;;;;;;;-2.02;67.69;100948.53;1702574;84;22188;-70
2022/03/03 04:54:59;;;;;;;98.20;39.92;;;;;;;-2.05;67.69;100947.39;1702646;84;21051;-70
2022/03/03 04:57:25;;;;;;;93.20;41.60;;;;;;;-2.05;67.69;100950.00;1702537;84;21063;-70
2022/03/03 04:59:51;;;;;;;97.88;42.70;;;;;;;-2.07;67.66;100949.21;1702690;84;21941;-70
2022/03/03 05:02:17;;;;;;;97.17;41.75;;;;;;;-2.10;67.67;100945.45;1702814;84;27564;-70
2022/03/03 05:04:43;;;;;;;93.50;41.23;;;;;;;-2.12;67.64;100929.88;1702816;84;21012;-70
2022/03/03 05:07:09;;;;;;;91.32;38.98;;;;;;;-2.11;67.62;100927.62;1702525;84;21059;-70
2022/03/03 05:09:35;;;;;;;89.72;40.95;;;;;;;-2.14;67.61;100936.07;1702472;84;21051;-70
2022/03/03 05:12:01;;;;;;;93.27;38.78;;;;;;;-2.14;67.61;100929.54;1702594;84;21187;-70
2022/03/03 05:14:27;;;;;;;102.00;43.08;;;;;;;-2.16;67.61;100930.09;1703746;82;21346;-69
2022/03/03 05:16:53;;;;;;;85.87;40.38;;;;;;;-2.17;67.60;100931.00;1702797;84;21091;-69
2022/03/03 05:19:19;;;;;;;106.43;45.25;;;;;;;-2.17;67.58;100930.55;1702635;84;21071;-70
2022/03/03 05:21:45;;;;;;;116.53;49.55;;;;;;;-2.17;67.58;100925.78;1688181;85;21073;-70
2022/03/03 05:24:11;;;;;;;137.90;59.58;;;;;;;-2.18;67.57;100921.50;1699622;82;21170;-70
2022/03/03 05:26:37;;;;;;;196.87;81.80;;;;;;;-2.18;67.56;100926.72;1692974;84;20994;-70
2022/03/03 05:29:03;;;;;;;182.68;78.60;;;;;;;-2.17;67.56;100922.71;1692820;84;21003;-70
2022/03/03 05:31:29;;;;;;;223.22;96.97;;;;;;;-2.18;67.53;100923.62;1692920;84;21053;-70
2022/03/03 05:33:55;;;;;;;205.00;84.42;;;;;;;-2.21;67.52;100921.63;1692991;84;21022;-70
2022/03/03 05:36:21;;;;;;;185.15;80.15;;;;;;;-2.21;67.50;100919.86;1692908;83;21111;-70
2022/03/03 05:38:47;;;;;;;184.93;73.37;;;;;;;-2.23;67.47;100928.70;1692708;84;21484;-70
2022/03/03 05:41:13;;;;;;;158.45;67.35;;;;;;;-2.24;67.46;100933.53;1692882;84;26398;-70
2022/03/03 05:43:39;;;;;;;152.82;58.70;;;;;;;-2.26;67.45;100939.31;1692902;84;21054;-70
2022/03/03 05:46:05;;;;;;;154.40;60.45;;;;;;;-2.27;67.45;100948.05;1692896;84;21014;-70
2022/03/03 05:48:31;;;;;;;149.53;64.47;;;;;;;-2.26;67.46;100938.00;1693003;84;21799;-70
2022/03/03 05:50:57;;;;;;;123.00;54.27;;;;;;;-2.23;67.45;100939.15;1692932;84;27558;-70
2022/03/03 05:53:23;;;;;;;109.35;50.80;;;;;;;-2.22;67.45;100945.63;1692907;84;20999;-71
2022/03/03 05:55:56;;;;;;;105.55;45.48;;;;;;;-2.24;67.43;100937.45;1692936;84;21011;-70
2022/03/03 05:58:23;;;;;;;99.70;45.50;;;;;;;-2.28;67.42;100941.13;1692861;84;21019;-70
2022/03/03 06:00:56;;;;;;;98.62;44.63;;;;;;;-2.28;67.42;100938.52;1692965;84;22000;-70
2022/03/03 06:03:23;;;;;;;112.45;47.73;;;;;;;-2.27;67.40;100943.68;1692674;84;21054;-70
2022/03/03 06:05:53;;;;;;;102.00;45.23;;;;;;;-2.25;67.41;100945.74;1692975;84;21518;-70
2022/03/03 06:08:30;;;;;;;98.05;46.10;;;;;;;-2.27;67.41;100948.05;1692819;84;21062;-70
2022/03/03 06:10:55;;;;;;;104.90;44.03;;;;;;;-2.31;67.46;100946.51;1692872;84;20990;-70
2022/03/03 06:13:28;;;;;;;96.50;45.35;;;;;;;-2.30;67.43;100946.91;1692964;84;21140;-70
2022/03/03 06:15:54;;;;;;;109.10;44.18;;;;;;;-2.26;67.44;100952.37;1692905;84;21491;-70
2022/03/03 06:18:27;;;;;;;101.47;43.00;;;;;;;-2.26;67.44;100944.53;1671198;84;21502;-70
2022/03/03 06:20:53;;;;;;;96.67;45.88;;;;;;;-2.25;67.45;100953.58;1692915;84;21035;-70
2022/03/03 06:23:20;;;;;;;123.82;50.55;;;;;;;-2.25;67.44;100947.05;1692754;84;21087;-70
2022/03/03 06:25:50;;;;;;;139.97;67.58;;;;;;;-2.24;67.43;100947.90;1691833;84;21087;-70
2022/03/03 06:28:16;;;;;;;150.85;73.20;;;;;;;-2.07;67.39;100955.74;1691762;82;21011;-71
2022/03/03 06:30:42;;;;;;;124.58;60.25;;;;;;;-1.87;67.35;100953.00;1661214;85;21025;-70
2022/03/03 06:33:08;;;;;;;114.72;56.40;;;;;;;-1.68;67.39;100952.88;1692010;82;21657;-70
2022/03/03 06:35:36;;;;;;;123.97;56.80;;;;;;;-1.51;67.39;100958.94;1684623;83;21618;-70
2022/03/03 06:38:05;;;;;;;161.82;79.20;;;;;;;-1.35;67.38;100954.22;1682567;85;22103;-70
2022/03/03 06:40:32;;;;;;;202.85;94.62;;;;;;;-1.25;67.41;100954.11;1673756;85;21027;-70
2022/03/03 06:43:00;;;;;;;246.18;104.17;;;;;;;-1.15;67.45;100947.45;1657400;86;21507;-70
2022/03/03 06:45:30;;;;;;;328.05;129.05;;;;;;;-1.03;67.47;100955.97;1657547;86;21019;-70
2022/03/03 06:47:57;;;;;;;;;;;;;;;-0.94;67.47;100957.22;1660011;86;20995;-70
2022/03/03 06:50:23;;;;;;;262.98;102.82;;;;;;;-0.78;67.50;100960.25;1657540;86;21863;-71
2022/03/03 06:52:50;;;;;;;189.80;74.10;;;;;;;-0.60;67.50;100950.04;1664608;85;21039;-70
2022/03/03 06:55:24;;;;;;;132.95;57.40;;;;;;;-0.49;67.49;100952.55;1684874;85;21079;-70
2022/03/03 06:57:54;;;;;;;196.20;76.72;;;;;;;-0.24;67.46;100955.44;1660586;86;21041;-70
2022/03/03 07:00:22;;;;;;;228.00;84.03;;;;;;;-0.05;67.47;100956.94;1698735;83;21019;-70
2022/03/03 07:02:49;;;;;;;249.88;90.85;;;;;;;0.06;67.44;100957.62;1687986;83;21801;-70
2022/03/03 07:05:15;;;;;;;233.05;83.92;;;;;;;0.23;67.41;100953.54;1683322;83;21076;-70
2022/03/03 07:07:43;;;;;;;209.90;77.92;;;;;;;0.37;67.34;100957.96;1684600;83;21126;-69
2022/03/03 07:10:11;;;;;;;168.78;67.03;;;;;;;0.56;67.29;100961.19;1686321;83;21537;-70
2022/03/03 07:12:37;;;;;;;143.57;60.88;;;;;;;0.77;67.18;100959.88;1681658;83;21163;-70
2022/03/03 07:15:03;;;;;;;109.17;48.30;;;;;;;0.97;67.11;100961.27;1682781;83;21170;-69
2022/03/03 07:17:47;;;;;;;112.42;48.55;;;;;;;1.14;67.05;100961.05;1684354;83;21012;-70
2022/03/03 07:20:27;;;;;;;94.70;45.48;;;;;;;1.19;66.95;100962.94;1683929;83;21053;-70
2022/03/03 07:23:19;;;;;;;;;;;;;;;1.24;66.84;100954.28;1688347;83;21746;-70
2022/03/03 07:25:49;;;;;;;84.47;42.53;;;;;;;1.30;66.68;100960.95;1686476;83;20477;-70
2022/03/03 07:28:15;;;;;;;99.50;45.40;;;;;;;1.36;66.57;100969.28;1682300;83;48133;-70
2022/03/03 07:30:42;;;;;;;89.28;42.35;;;;;;;1.33;66.45;100974.73;1684692;83;21098;-70
2022/03/03 07:33:15;;;;;;;94.13;46.53;;;;;;;1.32;66.29;100970.88;1683331;83;21041;-70
2022/03/03 07:35:43;;;;;;;98.95;47.53;;;;;;;1.28;66.15;100961.02;1681615;83;21679;-70
2022/03/03 07:38:19;;;;;;;123.25;52.33;;;;;;;1.32;66.03;100965.16;1683286;83;21078;-70
2022/03/03 07:40:47;;;;;;;101.05;48.40;;;;;;;1.42;65.91;100957.52;1686742;83;21184;-70
2022/03/03 07:43:14;;;;;;;115.60;49.23;;;;;;;1.43;65.78;100960.06;1665178;84;21000;-70
2022/03/03 07:45:41;;;;;;;104.70;48.75;;;;;;;1.41;65.69;100964.55;1685376;83;21030;-70
2022/03/03 07:48:07;;;;;;;123.15;54.95;;;;;;;1.44;65.59;100961.73;1684965;83;21033;-70
2022/03/03 07:50:39;;;;;;;99.65;48.33;;;;;;;1.50;65.50;100957.88;1693804;83;21021;-70
2022/03/03 07:53:01;;;;;;;99.85;49.00;;;;;;;1.61;65.38;100963.76;1685180;83;21807;-70
2022/03/03 07:55:27;;;;;;;108.25;52.62;;;;;;;1.67;65.29;100959.41;1685725;83;21597;-70
2022/03/03 07:58:00;;;;;;;112.95;52.48;;;;;;;1.67;65.16;100960.26;1680524;83;21053;-70
2022/03/03 08:00:31;;;;;;;105.60;53.70;;;;;;;1.69;65.04;100964.12;1689706;83;21031;-70
2022/03/03 08:02:59;;;;;;;108.32;50.52;;;;;;;1.76;64.96;100964.91;1681960;83;21072;-70
2022/03/03 08:05:28;;;;;;;108.90;51.80;;;;;;;1.80;64.87;100958.51;1683348;83;21132;-70
2022/03/03 08:07:55;;;;;;;115.60;52.53;;;;;;;1.87;64.80;100953.69;1641403;85;21525;-70
2022/03/03 08:10:21;;;;;;;108.57;51.98;;;;;;;2.00;64.74;100954.58;1685704;83;21025;-70
2022/03/03 08:12:47;;;;;;;109.87;54.55;;;;;;;2.12;64.61;100955.06;1684284;83;20905;-70
2022/03/03 08:15:13;;;;;;;109.60;53.85;;;;;;;2.16;64.52;100949.97;1679328;83;21164;-71
2022/03/03 08:17:40;;;;;;;105.07;52.05;;;;;;;2.24;64.47;100946.36;1688528;83;21077;-70
2022/03/03 08:20:08;;;;;;;115.40;55.70;;;;;;;2.30;64.39;100941.99;1682307;83;21082;-70
2022/03/03 08:22:34;;;;;;;139.03;69.90;;;;;;;2.36;64.34;100933.67;1684748;83;21069;-70
2022/03/03 08:25:00;;;;;;;112.30;56.90;;;;;;;2.43;64.21;100930.98;1687697;83;21456;-70
2022/03/03 08:27:27;;;;;;;102.50;51.45;;;;;;;2.55;64.11;100937.69;1681672;83;21454;-70
2022/03/03 08:29:54;;;;;;;107.47;55.20;;;;;;;2.60;63.98;100940.38;1684233;83;21148;-70
2022/03/03 08:32:21;;;;;;;113.32;55.28;;;;;;;2.61;63.91;100942.52;1685096;83;21533;-70
2022/03/03 08:35:08;;;;;;;105.65;50.05;;;;;;;2.67;63.84;100944.75;1679542;83;21022;-70
2022/03/03 08:37:40;;;;;;;163.82;63.90;;;;;;;2.71;63.65;100941.77;1681711;83;21079;-70
2022/03/03 08:40:08;;;;;;;115.62;52.88;;;;;;;2.85;63.58;100940.84;1680602;83;21081;-70
2022/03/03 08:42:45;;;;;;;114.60;51.45;;;;;;;2.99;63.46;100940.71;1682574;83;21073;-70
2022/03/03 08:45:11;;;;;;;88.58;43.85;;;;;;;3.04;63.35;100937.26;1691010;83;21033;-70
2022/03/03 08:47:41;;;;;;;78.02;39.23;;;;;;;3.12;63.25;100938.03;1684046;83;21009;-71
2022/03/03 08:50:17;;;;;;;91.08;41.23;;;;;;;3.08;63.12;100942.68;1684249;83;21068;-70
2022/03/03 08:52:42;;;;;;;94.15;45.43;;;;;;;3.08;63.01;100940.05;1682241;83;21704;-70
2022/03/03 08:55:09;;;;;;;93.97;43.25;;;;;;;3.13;62.91;100945.81;1689361;83;21171;-70
2022/03/03 08:57:40;;;;;;;88.67;43.78;;;;;;;3.19;62.79;100944.08;1683566;83;21019;-70
2022/03/03 09:00:10;;;;;;;83.17;41.88;;;;;;;3.16;62.64;100942.98;1695896;83;21141;-70
2022/03/03 09:02:40;;;;;;;96.67;44.83;;;;;;;3.17;62.49;100940.70;1671480;83;21107;-70
2022/03/03 09:05:08;;;;;;;100.12;47.43;;;;;;;3.15;62.34;100940.45;1696219;83;21052;-70
2022/03/03 09:07:34;;;;;;;102.50;49.18;;;;;;;3.16;62.17;100942.98;1699043;83;21194;-71
2022/03/03 09:10:01;;;;;;;97.90;49.98;;;;;;;3.18;62.07;100944.17;1696090;83;21009;-70
2022/03/03 09:12:27;;;;;;;74.25;36.23;;;;;;;3.27;61.94;100937.77;1687348;83;21517;-70
2022/03/03 09:14:53;;;;;;;80.05;39.13;;;;;;;3.34;61.81;100932.92;1693006;83;21063;-71
2022/03/03 09:17:19;;;;;;;71.62;39.88;;;;;;;3.30;61.68;100934.94;1684629;83;21100;-70
2022/03/03 09:19:47;;;;;;;88.80;43.13;;;;;;;3.31;61.57;100939.23;1686167;83;21857;-70
2022/03/03 09:22:13;;;;;;;90.07;46.42;;;;;;;3.35;61.43;100933.27;1684504;83;21064;-70
2022/03/03 09:24:39;;;;;;;77.78;41.08;;;;;;;3.45;61.35;100929.84;1687249;83;21684;-70
2022/03/03 09:27:05;;;;;;;90.65;43.52;;;;;;;3.49;61.19;100932.63;1681515;83;21896;-70
2022/03/03 09:29:36;;;;;;;82.85;43.30;;;;;;;3.47;61.10;100927.96;1664041;83;21025;-70
2022/03/03 09:32:01;;;;;;;89.77;45.25;;;;;;;3.53;61.00;100935.89;1684753;83;21692;-70
2022/03/03 09:34:28;;;;;;;85.15;44.70;;;;;;;3.60;60.91;100933.64;1685453;83;21010;-70
2022/03/03 09:36:55;;;;;;;84.42;42.88;;;;;;;3.67;60.80;100934.88;1682589;83;21061;-70
2022/03/03 09:39:22;;;;;;;85.12;43.35;;;;;;;3.72;60.71;100938.03;1687327;83;21095;-70
2022/03/03 09:41:48;;;;;;;80.47;43.55;;;;;;;3.73;60.63;100935.77;1685348;83;21040;-70
2022/03/03 09:44:14;;;;;;;77.85;42.73;;;;;;;3.78;60.60;100933.61;1684494;83;21151;-70
2022/03/03 09:46:41;;;;;;;95.05;46.05;;;;;;;3.77;60.47;100933.23;1684341;83;21679;-70
2022/03/03 09:49:07;;;;;;;91.80;46.58;;;;;;;3.78;60.42;100935.78;1685861;83;21064;-71
2022/03/03 09:51:33;;;;;;;94.05;47.78;;;;;;;3.82;60.28;100939.03;1663534;83;21082;-71
2022/03/03 09:54:00;;;;;;;97.40;49.42;;;;;;;3.85;60.28;100939.64;1683737;83;21058;-71
2022/03/03 09:56:26;;;;;;;95.80;47.70;;;;;;;3.93;60.22;100941.72;1682897;83;21585;-71
2022/03/03 09:58:52;;;;;;;84.05;44.65;;;;;;;4.03;60.19;100945.34;1686514;83;21791;-72
2022/03/03 10:01:18;;;;;;;89.58;44.67;;;;;;;4.05;60.13;100942.61;1686185;83;21648;-71
2022/03/03 10:03:47;;;;;;;76.60;40.60;;;;;;;4.03;60.11;100940.91;1683438;83;21485;-71
2022/03/03 10:06:12;;;;;;;65.97;35.80;;;;;;;4.01;60.07;100946.77;1684050;83;21076;-71
2022/03/03 10:08:38;;;;;;;66.77;36.15;;;;;;;4.08;59.96;100951.14;1684009;83;21612;-71
2022/03/03 10:11:04;;;;;;;59.10;33.92;;;;;;;4.08;59.90;100937.94;1685850;83;21595;-72
2022/03/03 10:13:51;;;;;;;62.55;35.70;;;;;;;4.11;59.85;100940.34;1685605;83;21034;-71
2022/03/03 10:16:26;;;;;;;60.83;34.43;;;;;;;4.13;59.81;100942.85;1663098;84;21047;-71
2022/03/03 10:19:02;;;;;;;66.72;36.33;;;;;;;4.18;59.76;100937.61;1656702;84;21051;-71
2022/03/03 10:21:28;;;;;;;64.95;34.90;;;;;;;4.25;59.65;100926.10;1662211;84;21863;-71
2022/03/03 10:23:54;;;;;;;61.63;35.48;;;;;;;4.28;59.55;100931.98;1663149;84;21035;-71
2022/03/03 10:26:20;;;;;;;60.52;35.70;;;;;;;4.22;59.50;100928.47;1658574;85;21037;-71
2022/03/03 10:28:49;;;;;;;68.42;36.45;;;;;;;4.19;59.46;100926.06;1658571;85;21044;-70
2022/03/03 10:31:18;;;;;;;53.13;28.10;;;;;;;4.24;59.47;100926.58;1659899;85;21033;-71
2022/03/03 10:33:49;;;;;;;66.20;36.53;;;;;;;4.26;59.42;100928.61;1685835;83;21251;-72
2022/03/03 10:36:32;;;;;;;68.00;36.17;;;;;;;4.24;59.39;100923.94;1689260;83;21624;-72
2022/03/03 10:39:00;;;;;;;68.92;40.05;;;;;;;4.27;59.35;100925.02;1675465;83;21370;-71
2022/03/03 10:41:40;;;;;;;71.45;37.67;;;;;;;4.36;59.35;100926.94;1683599;83;21058;-71
2022/03/03 10:44:11;;;;;;;64.35;37.30;;;;;;;4.33;59.30;100927.18;1691634;83;21544;-71
2022/03/03 10:46:58;;;;;;;64.25;36.20;;;;;;;4.35;59.31;100929.25;1683816;83;21599;-72
2022/03/03 10:49:24;;;;;;;70.90;37.00;;;;;;;4.31;59.31;100927.79;1690269;83;21065;-72
2022/03/03 10:51:50;;;;;;;69.35;39.18;;;;;;;4.37;59.33;100925.99;1686355;83;21564;-72
2022/03/03 10:54:16;;;;;;;67.75;36.35;;;;;;;4.46;59.33;100925.30;1682284;84;21011;-72
2022/03/03 10:56:48;;;;;;;80.53;47.10;;;;;;;4.46;59.33;100925.30;1693271;83;21090;-71
2022/03/03 10:59:23;;;;;;;75.25;41.48;;;;;;;4.49;59.34;100921.58;1681321;83;22087;-72
2022/03/03 11:01:49;;;;;;;68.65;38.23;;;;;;;4.50;59.33;100924.09;1681735;84;21454;-71
2022/03/03 11:04:18;;;;;;;66.10;35.80;;;;;;;4.52;59.33;100934.55;1710255;83;21004;-71
2022/03/03 11:06:44;;;;;;;113.90;55.60;;;;;;;4.54;59.33;100932.14;1700436;83;21142;-72
2022/03/03 11:09:10;;;;;;;77.05;41.53;;;;;;;4.57;59.32;100929.77;1692880;83;21144;-71
2022/03/03 11:11:37;;;;;;;66.28;37.33;;;;;;;4.62;59.33;100930.70;1691500;83;21025;-72